Disclaimer

Please do not use the information listed here in-flight or in-navigation, as they are not provided to us by the airports but are provided by volunteers, so they might be outdated.

Search


Regions


Airport information page

Radio informations:
FUKUOKA DEP - 119.7 MHz

Airport informations:
Latitude: 33° 08' 59.00" N
Longitude: 130° 18' 08.00" E
Elevation: 6 feet - 2 meters
Operating hours: Remarks
Operating agency: Civil government, landing fees and diplomatic clearance may be required
Timezone: UTC+9
Fuel: N/A

Runway information:
11/29 - 6562 x 148 feet< - >2000 x 45 meters

Recent METARs:
RJFS 201500Z 36005KT 9999 FEW040 SCT/// 06/04 Q1024
RJFS 201600Z 01005KT 9999 FEW040 SCT/// 05/04 Q1023
RJFS 201600Z 01005KT 9999 FEW040 SCT/// 05/04 Q1023

Airport on the map: